createdAt,value
2019-05-21T00:01:09.240Z,99855.20
2019-05-21T00:03:42.881Z,99858.61
2019-05-21T00:06:21.904Z,99851.47
2019-05-21T00:08:50.164Z,99851.82
2019-05-21T00:11:17.167Z,99849.07
2019-05-21T00:13:53.393Z,99857.46
2019-05-21T00:16:20.363Z,99852.64
2019-05-21T00:18:47.378Z,99854.70
2019-05-21T00:21:17.164Z,99856.66
2019-05-21T00:23:43.990Z,99862.56
2019-05-21T00:26:10.759Z,99862.05
2019-05-21T00:28:40.127Z,99858.61
2019-05-21T00:31:44.318Z,99854.28
2019-05-21T00:34:50.041Z,99859.00
2019-05-21T00:37:53.926Z,99858.00
2019-05-21T00:40:59.535Z,99861.39
2019-05-21T00:43:54.567Z,99859.69
2019-05-21T00:46:21.395Z,99861.05
2019-05-21T00:48:48.096Z,99853.47
2019-05-21T00:51:16.757Z,99865.28
2019-05-21T00:53:43.523Z,99862.88
2019-05-21T00:56:10.188Z,99860.37
2019-05-21T00:58:36.933Z,99859.37
2019-05-21T01:01:03.671Z,99859.44
2019-05-21T01:03:30.355Z,99861.31
2019-05-21T01:05:57.280Z,99861.80
2019-05-21T01:08:23.975Z,99861.03
2019-05-21T01:10:50.776Z,99870.95
2019-05-21T01:13:17.477Z,99871.02
2019-05-21T01:15:44.133Z,99872.74
2019-05-21T01:18:10.927Z,99876.07
2019-05-21T01:20:37.610Z,99875.53
2019-05-21T01:23:04.542Z,99875.31
2019-05-21T01:25:31.210Z,99878.27
2019-05-21T01:27:57.985Z,99886.85
2019-05-21T01:30:24.777Z,99885.00
2019-05-21T01:32:51.659Z,99875.58
2019-05-21T01:35:18.463Z,99880.01
2019-05-21T01:37:45.127Z,99879.84
2019-05-21T01:40:12.037Z,99879.06
2019-05-21T01:42:38.905Z,99882.02
2019-05-21T01:45:06.095Z,99878.37
2019-05-21T01:47:32.774Z,99885.36
2019-05-21T01:49:59.568Z,99875.36
2019-05-21T01:52:26.223Z,99871.83
2019-05-21T01:54:52.920Z,99878.16
2019-05-21T01:57:19.584Z,99876.66
2019-05-21T01:59:46.284Z,99876.19
2019-05-21T02:02:12.979Z,99871.61
2019-05-21T02:04:39.660Z,99870.95
2019-05-21T02:07:06.343Z,99872.52
2019-05-21T02:09:35.097Z,99870.89
2019-05-21T02:12:01.809Z,99869.95
2019-05-21T02:14:28.470Z,99880.92
2019-05-21T02:16:55.282Z,99880.08
2019-05-21T02:19:21.940Z,99885.45
2019-05-21T02:21:48.618Z,99891.50
2019-05-21T02:24:15.292Z,99898.02
2019-05-21T02:26:41.967Z,99897.20
2019-05-21T02:29:08.630Z,99900.64
2019-05-21T02:31:35.318Z,99898.59
2019-05-21T02:34:03.029Z,99890.75
2019-05-21T02:36:29.845Z,99890.59
2019-05-21T02:38:56.540Z,99881.20
2019-05-21T02:41:23.313Z,99887.47
2019-05-21T02:43:50.004Z,99888.00
2019-05-21T02:46:17.001Z,99895.48
2019-05-21T02:48:43.681Z,99899.75
2019-05-21T02:51:10.459Z,99895.42
2019-05-21T02:53:37.283Z,99891.28
2019-05-21T02:56:04.178Z,99895.64
2019-05-21T02:58:30.814Z,99899.84
2019-05-21T03:01:07.641Z,99894.34
2019-05-21T03:03:34.721Z,99898.64
2019-05-21T03:06:13.002Z,99900.66
2019-05-21T03:08:30.113Z,99903.50
2019-05-21T03:10:56.903Z,99889.81
2019-05-21T03:13:23.545Z,99895.06
2019-05-21T03:15:55.614Z,99892.53
2019-05-21T03:18:39.846Z,99898.55
2019-05-21T03:21:09.150Z,99893.16
2019-05-21T03:23:37.018Z,99885.20
2019-05-21T03:26:03.890Z,99890.88
2019-05-21T03:28:30.676Z,99886.13
2019-05-21T03:30:57.532Z,99891.83
2019-05-21T03:33:24.372Z,99888.64
2019-05-21T03:35:51.265Z,99892.84
2019-05-21T03:38:18.046Z,99887.91
2019-05-21T03:40:45.004Z,99887.18
2019-05-21T03:43:11.779Z,99886.58
2019-05-21T03:45:38.558Z,99885.38
2019-05-21T03:48:05.373Z,99888.52
2019-05-21T03:50:32.276Z,99890.67
2019-05-21T03:52:58.960Z,99905.49
2019-05-21T03:55:26.082Z,99901.70
2019-05-21T03:57:52.818Z,99896.98
2019-05-21T04:00:19.702Z,99903.58
2019-05-21T04:02:46.488Z,99899.38
2019-05-21T04:05:21.624Z,99894.73
2019-05-21T04:07:48.282Z,99898.87
2019-05-21T04:10:15.161Z,99911.20
2019-05-21T04:12:42.057Z,99908.67
2019-05-21T04:15:11.390Z,99906.66
2019-05-21T04:17:45.835Z,99913.04
2019-05-21T04:20:12.595Z,99916.66
2019-05-21T04:22:51.557Z,99916.34
2019-05-21T04:25:18.917Z,99909.45
2019-05-21T04:27:45.628Z,99916.02
2019-05-21T04:30:13.127Z,99918.13
2019-05-21T04:32:39.894Z,99916.52
2019-05-21T04:35:06.675Z,99914.00
2019-05-21T04:37:33.376Z,99919.83
2019-05-21T04:40:00.044Z,99929.16
2019-05-21T04:42:26.724Z,99931.86
2019-05-21T04:44:53.420Z,99936.22
2019-05-21T04:47:20.099Z,99948.38
2019-05-21T04:49:46.765Z,99944.90
2019-05-21T04:52:14.609Z,99948.14
2019-05-21T04:54:41.398Z,99944.45
2019-05-21T04:57:08.117Z,99944.31
2019-05-21T04:59:35.190Z,99945.65
2019-05-21T05:02:01.864Z,99941.08
2019-05-21T05:04:29.816Z,99932.77
2019-05-21T05:06:56.531Z,99936.43
2019-05-21T05:09:23.325Z,99937.69
2019-05-21T05:11:50.017Z,99937.28
2019-05-21T05:14:16.774Z,99938.75
2019-05-21T05:16:43.550Z,99936.12
2019-05-21T05:19:10.340Z,99940.16
2019-05-21T05:21:37.054Z,99937.83
2019-05-21T05:24:03.935Z,99937.73
2019-05-21T05:26:30.832Z,99927.17
2019-05-21T05:28:57.553Z,99921.74
2019-05-21T05:31:24.437Z,99924.27
2019-05-21T05:33:51.137Z,99925.50
2019-05-21T05:36:17.861Z,99920.75
2019-05-21T05:38:44.591Z,99922.12
2019-05-21T05:41:11.288Z,99923.72
2019-05-21T05:43:37.953Z,99926.83
2019-05-21T05:46:04.824Z,99928.09
2019-05-21T05:48:33.443Z,99935.33
2019-05-21T05:51:02.320Z,99938.88
2019-05-21T05:53:29.026Z,99935.84
2019-05-21T05:55:55.751Z,99937.00
2019-05-21T05:58:22.431Z,99938.40
2019-05-21T06:00:49.136Z,99934.89
2019-05-21T06:03:15.902Z,99933.34
2019-05-21T06:05:42.716Z,99936.41
2019-05-21T06:08:09.494Z,99937.64
2019-05-21T06:10:39.815Z,99935.73
2019-05-21T06:13:04.962Z,99937.53
2019-05-21T06:15:31.658Z,99942.31
2019-05-21T06:17:58.347Z,99939.68
2019-05-21T06:20:25.598Z,99939.23
2019-05-21T06:22:52.310Z,99937.72
2019-05-21T06:25:19.300Z,99938.17
2019-05-21T06:27:46.109Z,99942.78
2019-05-21T06:30:13.273Z,99944.11
2019-05-21T06:32:40.070Z,99946.92
2019-05-21T06:35:06.883Z,99956.72
2019-05-21T06:37:34.018Z,99956.86
2019-05-21T06:40:00.843Z,99954.10
2019-05-21T06:42:27.526Z,99962.11
2019-05-21T06:44:54.439Z,99956.60
2019-05-21T06:47:21.207Z,99962.84
2019-05-21T06:49:48.989Z,99961.59
2019-05-21T06:52:15.768Z,99961.17
2019-05-21T06:54:42.554Z,99965.06
2019-05-21T06:57:09.289Z,99972.75
2019-05-21T06:59:36.047Z,99974.44
2019-05-21T07:02:02.861Z,99976.55
2019-05-21T07:04:29.530Z,99977.16
2019-05-21T07:06:56.319Z,99985.92
2019-05-21T07:09:23.119Z,99984.14
2019-05-21T07:11:49.781Z,99986.64
2019-05-21T07:14:16.460Z,99989.30
2019-05-21T07:16:43.412Z,99984.05
2019-05-21T07:19:10.292Z,99984.11
2019-05-21T07:21:37.057Z,99981.83
2019-05-21T07:24:03.852Z,99982.78
2019-05-21T07:26:30.654Z,99980.00
2019-05-21T07:28:57.639Z,99982.76
2019-05-21T07:31:24.602Z,99986.91
2019-05-21T07:33:51.274Z,99988.80
2019-05-21T07:36:18.072Z,99996.36
2019-05-21T07:38:53.473Z,100003.89
2019-05-21T07:41:13.530Z,100002.09
2019-05-21T07:43:40.268Z,99998.38
2019-05-21T07:46:07.302Z,99991.02
2019-05-21T07:48:34.075Z,100002.08
2019-05-21T07:51:01.650Z,100007.23
2019-05-21T07:53:28.307Z,100019.23
2019-05-21T07:55:55.093Z,100013.75
2019-05-21T07:58:21.939Z,100014.05
2019-05-21T08:00:48.830Z,100022.95
2019-05-21T08:03:15.609Z,100017.14
2019-05-21T08:05:42.341Z,100021.82
2019-05-21T08:08:09.000Z,100016.44
2019-05-21T08:10:36.778Z,100013.45
2019-05-21T08:13:03.727Z,100020.10
2019-05-21T08:15:30.573Z,100016.23
2019-05-21T08:17:57.666Z,100010.91
2019-05-21T08:20:24.953Z,100011.38
2019-05-21T08:22:51.741Z,100012.30
2019-05-21T08:25:18.408Z,100018.39
2019-05-21T08:27:45.129Z,100015.45
2019-05-21T08:30:12.138Z,100021.47
2019-05-21T08:32:38.916Z,100027.70
2019-05-21T08:35:05.732Z,100031.41
2019-05-21T08:37:32.537Z,100024.03
2019-05-21T08:39:59.320Z,100033.80
2019-05-21T08:42:26.094Z,100025.12
2019-05-21T08:44:52.871Z,100025.53
2019-05-21T08:47:19.655Z,100031.86
2019-05-21T08:49:46.489Z,100029.20
2019-05-21T08:52:13.271Z,100034.97
2019-05-21T08:54:55.918Z,100032.44
2019-05-21T08:57:22.681Z,100037.80
2019-05-21T08:59:49.568Z,100031.94
2019-05-21T09:02:17.976Z,100035.42
2019-05-21T09:04:46.703Z,100036.25
2019-05-21T09:07:13.926Z,100035.98
2019-05-21T09:09:49.882Z,100043.48
2019-05-21T09:12:09.687Z,100042.31
2019-05-21T09:14:36.700Z,100055.41
2019-05-21T09:17:03.515Z,100044.66
2019-05-21T09:19:30.210Z,100054.78
2019-05-21T09:21:57.009Z,100057.72
2019-05-21T09:24:23.763Z,100060.16
2019-05-21T09:26:50.656Z,100058.58
2019-05-21T09:29:17.427Z,100055.64
2019-05-21T09:31:44.320Z,100058.77
2019-05-21T09:34:11.471Z,100062.57
2019-05-21T09:36:38.338Z,100067.13
2019-05-21T09:39:05.560Z,100062.61
2019-05-21T09:41:34.453Z,100059.95
2019-05-21T09:44:04.428Z,100061.34
2019-05-21T09:46:31.658Z,100064.48
2019-05-21T09:48:58.721Z,100068.53
2019-05-21T09:51:25.516Z,100067.11
2019-05-21T09:53:52.213Z,100070.05
2019-05-21T09:56:31.240Z,100070.63
2019-05-21T09:59:00.394Z,100072.11
2019-05-21T10:01:47.709Z,100070.49
2019-05-21T10:04:12.475Z,100076.76
2019-05-21T10:06:39.354Z,100076.41
2019-05-21T10:09:09.021Z,100075.14
2019-05-21T10:11:35.893Z,100078.53
2019-05-21T10:14:03.889Z,100074.26
2019-05-21T10:16:30.570Z,100082.20
2019-05-21T10:18:57.414Z,100074.70
2019-05-21T10:21:24.237Z,100079.23
2019-05-21T10:23:51.301Z,100080.91
2019-05-21T10:26:18.158Z,100081.50
2019-05-21T10:28:44.970Z,100087.55
2019-05-21T10:31:11.887Z,100091.89
2019-05-21T10:33:38.802Z,100090.14
2019-05-21T10:36:05.581Z,100090.43
2019-05-21T10:38:32.458Z,100093.47
2019-05-21T10:40:59.400Z,100093.16
2019-05-21T10:43:26.323Z,100094.98
2019-05-21T10:45:53.014Z,100093.05
2019-05-21T10:48:20.426Z,100097.27
2019-05-21T10:50:47.114Z,100091.70
2019-05-21T10:53:14.129Z,100096.22
2019-05-21T10:55:40.902Z,100094.19
2019-05-21T10:58:07.598Z,100101.37
2019-05-21T11:00:34.392Z,100100.20
2019-05-21T11:03:08.980Z,100103.39
2019-05-21T11:05:37.862Z,100107.66
2019-05-21T11:08:22.795Z,100103.30
2019-05-21T11:10:34.422Z,100107.19
2019-05-21T11:13:01.367Z,100101.58
2019-05-21T11:15:28.220Z,100106.46
2019-05-21T11:18:09.673Z,100107.70
2019-05-21T11:20:23.743Z,100119.09
2019-05-21T11:22:50.535Z,100115.48
2019-05-21T11:25:17.300Z,100116.92
2019-05-21T11:27:44.010Z,100120.22
2019-05-21T11:30:10.902Z,100120.80
2019-05-21T11:32:37.795Z,100124.25
2019-05-21T11:35:05.598Z,100123.11
2019-05-21T11:37:32.487Z,100123.17
2019-05-21T11:39:59.250Z,100128.86
2019-05-21T11:42:26.096Z,100122.25
2019-05-21T11:44:52.869Z,100129.59
2019-05-21T11:47:19.565Z,100129.59
2019-05-21T11:49:46.371Z,100134.70
2019-05-21T11:52:13.151Z,100137.77
2019-05-21T11:54:40.216Z,100139.36
2019-05-21T11:57:06.902Z,100136.03
2019-05-21T11:59:33.681Z,100133.40
2019-05-21T12:02:00.383Z,100127.06
2019-05-21T12:04:27.867Z,100133.64
2019-05-21T12:06:54.670Z,100135.77
2019-05-21T12:09:21.444Z,100134.20
2019-05-21T12:11:48.244Z,100135.33
2019-05-21T12:14:14.905Z,100138.30
2019-05-21T12:16:42.186Z,100138.36
2019-05-21T12:19:09.191Z,100138.01
2019-05-21T12:21:35.979Z,100138.06
2019-05-21T12:24:02.895Z,100140.42
2019-05-21T12:26:29.704Z,100135.02
2019-05-21T12:28:56.701Z,100137.88
2019-05-21T12:31:23.835Z,100139.18
2019-05-21T12:33:50.943Z,100141.38
2019-05-21T12:36:17.923Z,100144.84
2019-05-21T12:38:44.713Z,100144.01
2019-05-21T12:41:13.746Z,100141.86
2019-05-21T12:43:40.485Z,100137.02
2019-05-21T12:46:07.186Z,100142.47
2019-05-21T12:48:34.011Z,100148.99
2019-05-21T12:51:00.768Z,100145.89
2019-05-21T12:53:27.662Z,100147.02
2019-05-21T12:55:54.494Z,100148.38
2019-05-21T12:58:21.652Z,100148.09
2019-05-21T13:00:48.676Z,100141.72
2019-05-21T13:03:15.367Z,100144.70
2019-05-21T13:05:42.135Z,100146.55
2019-05-21T13:08:09.239Z,100146.73
2019-05-21T13:10:38.349Z,100144.43
2019-05-21T13:13:07.016Z,100145.25
2019-05-21T13:15:33.994Z,100147.47
2019-05-21T13:18:00.670Z,100147.97
2019-05-21T13:20:28.544Z,100139.77
2019-05-21T13:22:56.050Z,100140.72
2019-05-21T13:25:23.024Z,100147.88
2019-05-21T13:27:49.681Z,100147.02
2019-05-21T13:30:17.123Z,100152.63
2019-05-21T13:32:44.074Z,100150.50
2019-05-21T13:35:10.982Z,100158.44
2019-05-21T13:37:37.674Z,100155.75
2019-05-21T13:40:05.819Z,100158.91
2019-05-21T13:42:33.152Z,100164.09
2019-05-21T13:44:59.970Z,100160.88
2019-05-21T13:47:26.786Z,100159.17
2019-05-21T13:49:53.506Z,100159.26
2019-05-21T13:52:21.402Z,100162.47
2019-05-21T13:54:48.139Z,100159.91
2019-05-21T13:57:14.938Z,100157.46
2019-05-21T13:59:41.796Z,100164.53
2019-05-21T14:02:12.288Z,100162.80
2019-05-21T14:04:39.103Z,100165.72
2019-05-21T14:07:05.924Z,100167.95
2019-05-21T14:09:32.622Z,100168.98
2019-05-21T14:11:59.589Z,100170.83
2019-05-21T14:14:28.347Z,100166.25
2019-05-21T14:16:55.443Z,100170.94
2019-05-21T14:19:22.347Z,100172.02
2019-05-21T14:21:49.139Z,100168.59
2019-05-21T14:24:15.806Z,100172.02
2019-05-21T14:26:43.091Z,100178.00
2019-05-21T14:29:10.208Z,100184.64
2019-05-21T14:31:37.063Z,100185.70
2019-05-21T14:34:03.841Z,100185.41
2019-05-21T14:36:30.650Z,100182.73
2019-05-21T14:38:57.425Z,100185.27
2019-05-21T14:41:24.230Z,100190.98
2019-05-21T14:43:51.041Z,100184.94
2019-05-21T14:46:17.890Z,100183.69
2019-05-21T14:48:44.699Z,100186.99
2019-05-21T14:51:13.569Z,100183.58
2019-05-21T14:53:40.259Z,100183.97
2019-05-21T14:56:06.934Z,100191.70
2019-05-21T14:58:33.609Z,100190.80
2019-05-21T15:01:00.402Z,100189.30
2019-05-21T15:03:29.487Z,100193.09
2019-05-21T15:05:55.854Z,100195.17
2019-05-21T15:08:22.637Z,100199.30
2019-05-21T15:10:50.426Z,100196.39
2019-05-21T15:13:17.239Z,100201.89
2019-05-21T15:15:43.913Z,100202.43
2019-05-21T15:18:16.286Z,100208.51
2019-05-21T15:20:52.774Z,100215.33
2019-05-21T15:23:19.447Z,100207.83
2019-05-21T15:25:46.225Z,100217.47
2019-05-21T15:28:13.324Z,100212.42
2019-05-21T15:30:41.301Z,100211.94
2019-05-21T15:33:08.444Z,100217.80
2019-05-21T15:35:35.134Z,100219.84
2019-05-21T15:38:01.929Z,100225.50
2019-05-21T15:40:28.812Z,100226.77
2019-05-21T15:42:55.581Z,100232.02
2019-05-21T15:45:22.667Z,100233.53
2019-05-21T15:47:49.332Z,100218.05
2019-05-21T15:50:17.835Z,100234.90
2019-05-21T15:52:45.166Z,100246.99
2019-05-21T15:55:12.029Z,100252.16
2019-05-21T15:57:38.835Z,100247.59
2019-05-21T16:00:05.889Z,100261.90
2019-05-21T16:02:33.297Z,100256.80
2019-05-21T16:05:01.894Z,100257.27
2019-05-21T16:07:29.187Z,100250.75
2019-05-21T16:09:56.199Z,100259.59
2019-05-21T16:12:22.887Z,100268.17
2019-05-21T16:14:49.670Z,100270.98
2019-05-21T16:17:17.763Z,100264.66
2019-05-21T16:19:44.564Z,100266.52
2019-05-21T16:22:11.359Z,100265.75
2019-05-21T16:24:39.322Z,100282.28
2019-05-21T16:27:06.398Z,100272.38
2019-05-21T16:29:33.299Z,100274.04
2019-05-21T16:32:00.205Z,100277.16
2019-05-21T16:34:31.602Z,100270.27
2019-05-21T16:36:55.865Z,100277.05
2019-05-21T16:39:24.360Z,100278.09
2019-05-21T16:41:51.158Z,100279.95
2019-05-21T16:44:18.235Z,100279.98
2019-05-21T16:46:45.579Z,100284.67
2019-05-21T16:49:15.337Z,100279.84
2019-05-21T16:51:43.518Z,100275.84
2019-05-21T16:54:15.310Z,100277.91
2019-05-21T16:56:42.158Z,100281.50
2019-05-21T16:59:09.320Z,100293.63
2019-05-21T17:01:35.998Z,100290.59
2019-05-21T17:04:03.039Z,100287.72
2019-05-21T17:06:30.390Z,100294.37
2019-05-21T17:08:57.066Z,100288.33
2019-05-21T17:11:23.861Z,100295.89
2019-05-21T17:13:50.534Z,100295.89
2019-05-21T17:16:17.358Z,100296.20
2019-05-21T17:18:44.149Z,100298.67
2019-05-21T17:21:10.930Z,100299.39
2019-05-21T17:23:38.049Z,100299.39
2019-05-21T17:26:04.868Z,100293.41
2019-05-21T17:28:31.680Z,100293.47
2019-05-21T17:30:58.939Z,100302.61
2019-05-21T17:33:25.597Z,100306.88
2019-05-21T17:35:52.410Z,100304.50
2019-05-21T17:38:19.602Z,100304.70
2019-05-21T17:40:46.294Z,100305.61
2019-05-21T17:43:14.148Z,100302.58
2019-05-21T17:45:40.861Z,100299.57
2019-05-21T17:48:07.619Z,100311.11
2019-05-21T17:50:34.596Z,100304.52
2019-05-21T17:53:01.632Z,100318.13
2019-05-21T17:55:28.935Z,100316.50
2019-05-21T17:57:55.738Z,100313.55
2019-05-21T18:00:32.820Z,100316.12
2019-05-21T18:02:59.773Z,100322.61
2019-05-21T18:05:28.247Z,100316.48
2019-05-21T18:07:55.466Z,100318.39
2019-05-21T18:10:22.636Z,100325.15
2019-05-21T18:12:50.708Z,100324.94
2019-05-21T18:15:18.059Z,100331.78
2019-05-21T18:17:45.927Z,100334.06
2019-05-21T18:20:14.936Z,100332.75
2019-05-21T18:22:45.228Z,100338.44
2019-05-21T18:25:12.310Z,100338.04
2019-05-21T18:27:39.294Z,100346.40
2019-05-21T18:30:08.693Z,100351.38
2019-05-21T18:32:37.481Z,100352.64
2019-05-21T18:35:04.522Z,100353.34
2019-05-21T18:37:33.325Z,100350.82
2019-05-21T18:40:00.453Z,100360.77
2019-05-21T18:42:27.125Z,100360.76
2019-05-21T18:44:53.905Z,100364.73
2019-05-21T18:47:21.643Z,100367.36
2019-05-21T18:49:48.771Z,100372.30
2019-05-21T18:52:15.599Z,100377.89
2019-05-21T18:54:42.321Z,100380.63
2019-05-21T18:57:09.463Z,100387.54
2019-05-21T18:59:36.749Z,100392.91
2019-05-21T19:02:04.651Z,100396.35
2019-05-21T19:04:31.542Z,100400.47
2019-05-21T19:06:58.816Z,100404.86
2019-05-21T19:09:25.792Z,100399.52
2019-05-21T19:11:52.633Z,100403.75
2019-05-21T19:14:19.290Z,100411.92
2019-05-21T19:16:46.073Z,100405.94
2019-05-21T19:19:12.745Z,100410.05
2019-05-21T19:21:39.550Z,100411.31
2019-05-21T19:24:06.247Z,100414.29
2019-05-21T19:26:33.027Z,100412.02
2019-05-21T19:29:01.089Z,100419.81
2019-05-21T19:31:27.858Z,100411.77
2019-05-21T19:33:54.537Z,100419.27
2019-05-21T19:36:21.241Z,100415.00
2019-05-21T19:38:47.903Z,100420.21
2019-05-21T19:41:32.835Z,100421.78
2019-05-21T19:43:55.830Z,100421.38
2019-05-21T19:46:22.812Z,100422.33
2019-05-21T19:48:49.536Z,100422.24
2019-05-21T19:51:16.300Z,100422.64
2019-05-21T19:53:44.447Z,100419.66
2019-05-21T19:56:11.197Z,100417.63
2019-05-21T19:58:38.001Z,100420.94
2019-05-21T20:01:05.603Z,100421.73
2019-05-21T20:03:32.379Z,100418.27
2019-05-21T20:06:00.184Z,100427.08
2019-05-21T20:08:27.978Z,100422.43
2019-05-21T20:10:54.768Z,100422.98
2019-05-21T20:13:32.245Z,100420.48
2019-05-21T20:15:50.823Z,100419.69
2019-05-21T20:18:17.836Z,100418.11
2019-05-21T20:20:45.284Z,100423.95
2019-05-21T20:23:12.807Z,100433.69
2019-05-21T20:25:55.522Z,100432.59
2019-05-21T20:28:10.817Z,100433.55
2019-05-21T20:30:37.953Z,100422.55
2019-05-21T20:33:06.791Z,100429.45
2019-05-21T20:35:33.699Z,100421.11
2019-05-21T20:38:00.773Z,100429.06
2019-05-21T20:40:27.871Z,100431.32
2019-05-21T20:42:54.906Z,100427.09
2019-05-21T20:45:22.441Z,100435.89
2019-05-21T20:47:50.666Z,100438.88
2019-05-21T20:50:18.999Z,100429.22
2019-05-21T20:52:45.997Z,100444.20
2019-05-21T20:55:14.715Z,100433.45
2019-05-21T20:57:41.499Z,100444.37
2019-05-21T21:00:10.211Z,100443.61
2019-05-21T21:02:39.911Z,100443.05
2019-05-21T21:05:08.276Z,100432.33
2019-05-21T21:07:36.855Z,100420.58
2019-05-21T21:10:04.323Z,100429.84
2019-05-21T21:12:32.547Z,100423.06
2019-05-21T21:15:00.047Z,100423.06
2019-05-21T21:17:27.093Z,100442.63
2019-05-21T21:19:55.812Z,100447.96
2019-05-21T21:22:22.485Z,100445.84
2019-05-21T21:24:49.489Z,100450.87
2019-05-21T21:27:16.554Z,100456.53
2019-05-21T21:29:43.775Z,100460.36
2019-05-21T21:32:10.745Z,100460.36
2019-05-21T21:34:37.992Z,100458.86
2019-05-21T21:37:04.891Z,100463.87
2019-05-21T21:39:31.856Z,100463.87
2019-05-21T21:41:58.648Z,100460.10
2019-05-21T21:44:34.096Z,100449.88
2019-05-21T21:46:55.150Z,100450.52
2019-05-21T21:49:24.723Z,100453.65
2019-05-21T21:51:51.679Z,100444.19
2019-05-21T21:54:21.209Z,100444.19
2019-05-21T21:56:47.919Z,100449.77
2019-05-21T21:59:15.026Z,100439.46
2019-05-21T22:01:51.943Z,100452.95
2019-05-21T22:04:22.368Z,100452.95
2019-05-21T22:06:49.674Z,100454.91
2019-05-21T22:09:20.786Z,100463.00
2019-05-21T22:11:48.562Z,100455.80
2019-05-21T22:14:16.475Z,100451.75
2019-05-21T22:16:43.573Z,100451.75
2019-05-21T22:19:11.102Z,100450.05
2019-05-21T22:21:38.081Z,100456.83
2019-05-21T22:24:04.777Z,100458.67
2019-05-21T22:26:31.669Z,100458.67
2019-05-21T22:28:58.518Z,100469.44
2019-05-21T22:31:25.179Z,100469.44
2019-05-21T22:33:51.885Z,100465.78
2019-05-21T22:36:18.970Z,100467.31
2019-05-21T22:38:45.705Z,100467.31
2019-05-21T22:41:13.029Z,100476.91
2019-05-21T22:43:40.212Z,100476.91
2019-05-21T22:46:06.990Z,100473.14
2019-05-21T22:48:33.773Z,100473.14
2019-05-21T22:51:00.510Z,100488.93
2019-05-21T22:53:27.234Z,100475.70
2019-05-21T22:55:54.179Z,100489.05
2019-05-21T22:58:21.130Z,100489.05
2019-05-21T23:00:51.663Z,100497.22
2019-05-21T23:03:18.534Z,100476.70
2019-05-21T23:05:45.330Z,100479.97
2019-05-21T23:08:12.428Z,100483.77
2019-05-21T23:10:39.348Z,100480.00
2019-05-21T23:13:07.123Z,100480.00
2019-05-21T23:15:33.981Z,100479.04
2019-05-21T23:18:05.750Z,100479.04
2019-05-21T23:20:35.450Z,100477.31
2019-05-21T23:23:03.089Z,100482.20
2019-05-21T23:25:30.520Z,100482.20
2019-05-21T23:27:58.310Z,100482.98
2019-05-21T23:30:26.389Z,100482.98
2019-05-21T23:32:53.182Z,100487.75
2019-05-21T23:35:21.371Z,100494.11
2019-05-21T23:37:48.290Z,100482.62
2019-05-21T23:40:15.083Z,100494.50
2019-05-21T23:42:42.309Z,100494.50
2019-05-21T23:45:10.600Z,100494.32
2019-05-21T23:47:37.781Z,100495.79
2019-05-21T23:50:04.913Z,100499.73
2019-05-21T23:52:31.997Z,100498.91
2019-05-21T23:54:59.246Z,100491.84
2019-05-21T23:57:27.350Z,100495.93
2019-05-21T23:59:55.033Z,100496.61
